sensor_id;sensor_type;location;lat;lon;timestamp;P1;durP1;ratioP1;P2;durP2;ratioP2
76546;SDS011;65390;53.014;8.886;2022-12-08T00:01:22;13.77;;;6.28;;
76546;SDS011;65390;53.014;8.886;2022-12-08T00:03:50;14.65;;;6.43;;
76546;SDS011;65390;53.014;8.886;2022-12-08T00:12:09;14.98;;;7.22;;
76546;SDS011;65390;53.014;8.886;2022-12-08T00:14:43;10.85;;;6.47;;
76546;SDS011;65390;53.014;8.886;2022-12-08T00:17:15;18.10;;;6.40;;
76546;SDS011;65390;53.014;8.886;2022-12-08T00:19:42;11.82;;;6.82;;
76546;SDS011;65390;53.014;8.886;2022-12-08T00:22:10;11.05;;;7.07;;
76546;SDS011;65390;53.014;8.886;2022-12-08T00:24:41;18.00;;;5.90;;
76546;SDS011;65390;53.014;8.886;2022-12-08T00:29:37;8.90;;;6.07;;
76546;SDS011;65390;53.014;8.886;2022-12-08T00:32:04;12.85;;;6.30;;
76546;SDS011;65390;53.014;8.886;2022-12-08T00:34:31;22.33;;;5.78;;
76546;SDS011;65390;53.014;8.886;2022-12-08T00:36:58;10.38;;;6.32;;
76546;SDS011;65390;53.014;8.886;2022-12-08T00:39:28;8.93;;;5.20;;
76546;SDS011;65390;53.014;8.886;2022-12-08T00:41:55;11.85;;;6.47;;
76546;SDS011;65390;53.014;8.886;2022-12-08T00:44:37;15.20;;;6.22;;
76546;SDS011;65390;53.014;8.886;2022-12-08T00:47:04;11.82;;;6.03;;
76546;SDS011;65390;53.014;8.886;2022-12-08T00:49:31;13.77;;;7.03;;
76546;SDS011;65390;53.014;8.886;2022-12-08T00:51:57;9.88;;;5.95;;
76546;SDS011;65390;53.014;8.886;2022-12-08T00:54:24;13.70;;;5.85;;
76546;SDS011;65390;53.014;8.886;2022-12-08T00:56:51;12.23;;;5.82;;
76546;SDS011;65390;53.014;8.886;2022-12-08T00:59:18;10.98;;;5.65;;
76546;SDS011;65390;53.014;8.886;2022-12-08T01:01:45;11.02;;;5.05;;
76546;SDS011;65390;53.014;8.886;2022-12-08T01:04:13;13.73;;;7.00;;
76546;SDS011;65390;53.014;8.886;2022-12-08T01:06:42;10.85;;;6.18;;
76546;SDS011;65390;53.014;8.886;2022-12-08T01:09:13;15.02;;;6.40;;
76546;SDS011;65390;53.014;8.886;2022-12-08T01:11:41;15.43;;;6.55;;
76546;SDS011;65390;53.014;8.886;2022-12-08T01:14:10;15.77;;;6.70;;
76546;SDS011;65390;53.014;8.886;2022-12-08T01:16:37;14.65;;;6.75;;
76546;SDS011;65390;53.014;8.886;2022-12-08T01:19:05;7.50;;;6.15;;
76546;SDS011;65390;53.014;8.886;2022-12-08T01:21:32;14.32;;;6.60;;
76546;SDS011;65390;53.014;8.886;2022-12-08T01:23:58;12.60;;;6.50;;
76546;SDS011;65390;53.014;8.886;2022-12-08T01:26:25;9.18;;;6.38;;
76546;SDS011;65390;53.014;8.886;2022-12-08T01:28:52;13.27;;;6.35;;
76546;SDS011;65390;53.014;8.886;2022-12-08T01:31:19;14.30;;;6.72;;
76546;SDS011;65390;53.014;8.886;2022-12-08T01:33:47;15.80;;;6.50;;
76546;SDS011;65390;53.014;8.886;2022-12-08T01:36:22;11.38;;;5.95;;
76546;SDS011;65390;53.014;8.886;2022-12-08T01:38:51;11.63;;;6.43;;
76546;SDS011;65390;53.014;8.886;2022-12-08T01:41:20;19.10;;;6.00;;
76546;SDS011;65390;53.014;8.886;2022-12-08T01:44:01;12.00;;;5.68;;
76546;SDS011;65390;53.014;8.886;2022-12-08T01:46:34;10.82;;;5.93;;
76546;SDS011;65390;53.014;8.886;2022-12-08T01:51:44;10.25;;;6.55;;
76546;SDS011;65390;53.014;8.886;2022-12-08T01:54:20;13.95;;;5.65;;
76546;SDS011;65390;53.014;8.886;2022-12-08T01:57:23;17.45;;;6.47;;
76546;SDS011;65390;53.014;8.886;2022-12-08T01:59:46;16.30;;;6.45;;
76546;SDS011;65390;53.014;8.886;2022-12-08T02:02:16;10.65;;;5.22;;
76546;SDS011;65390;53.014;8.886;2022-12-08T02:04:47;14.15;;;5.70;;
76546;SDS011;65390;53.014;8.886;2022-12-08T02:07:14;14.25;;;6.15;;
76546;SDS011;65390;53.014;8.886;2022-12-08T02:09:42;13.52;;;5.95;;
76546;SDS011;65390;53.014;8.886;2022-12-08T02:12:09;11.85;;;5.68;;
76546;SDS011;65390;53.014;8.886;2022-12-08T02:14:36;16.65;;;6.07;;
76546;SDS011;65390;53.014;8.886;2022-12-08T02:17:20;17.35;;;6.72;;
76546;SDS011;65390;53.014;8.886;2022-12-08T02:25:35;13.82;;;5.15;;
76546;SDS011;65390;53.014;8.886;2022-12-08T02:37:25;8.13;;;4.80;;
76546;SDS011;65390;53.014;8.886;2022-12-08T02:42:54;13.25;;;4.65;;
76546;SDS011;65390;53.014;8.886;2022-12-08T02:48:14;10.85;;;6.05;;
76546;SDS011;65390;53.014;8.886;2022-12-08T02:50:41;11.85;;;4.80;;
76546;SDS011;65390;53.014;8.886;2022-12-08T02:53:07;9.95;;;4.78;;
76546;SDS011;65390;53.014;8.886;2022-12-08T03:10:22;8.93;;;5.15;;
76546;SDS011;65390;53.014;8.886;2022-12-08T03:13:15;10.43;;;3.95;;
76546;SDS011;65390;53.014;8.886;2022-12-08T03:15:47;12.18;;;5.10;;
76546;SDS011;65390;53.014;8.886;2022-12-08T03:18:15;11.13;;;4.00;;
76546;SDS011;65390;53.014;8.886;2022-12-08T03:20:44;14.73;;;5.63;;
76546;SDS011;65390;53.014;8.886;2022-12-08T03:23:13;6.20;;;3.20;;
76546;SDS011;65390;53.014;8.886;2022-12-08T03:26:03;12.90;;;5.13;;
76546;SDS011;65390;53.014;8.886;2022-12-08T03:28:36;12.75;;;4.97;;
76546;SDS011;65390;53.014;8.886;2022-12-08T03:31:05;10.43;;;4.13;;
76546;SDS011;65390;53.014;8.886;2022-12-08T03:33:41;10.77;;;3.65;;
76546;SDS011;65390;53.014;8.886;2022-12-08T03:36:16;10.18;;;4.10;;
76546;SDS011;65390;53.014;8.886;2022-12-08T03:38:43;11.10;;;4.38;;
76546;SDS011;65390;53.014;8.886;2022-12-08T03:41:11;5.82;;;3.92;;
76546;SDS011;65390;53.014;8.886;2022-12-08T03:43:46;14.45;;;4.18;;
76546;SDS011;65390;53.014;8.886;2022-12-08T03:46:15;7.25;;;3.88;;
76546;SDS011;65390;53.014;8.886;2022-12-08T03:48:42;7.05;;;3.63;;
76546;SDS011;65390;53.014;8.886;2022-12-08T03:51:09;4.85;;;4.18;;
76546;SDS011;65390;53.014;8.886;2022-12-08T03:53:35;8.65;;;3.33;;
76546;SDS011;65390;53.014;8.886;2022-12-08T03:58:51;10.70;;;4.13;;
76546;SDS011;65390;53.014;8.886;2022-12-08T04:01:18;5.30;;;3.47;;
76546;SDS011;65390;53.014;8.886;2022-12-08T04:03:46;8.55;;;3.42;;
76546;SDS011;65390;53.014;8.886;2022-12-08T04:06:13;6.20;;;3.63;;
76546;SDS011;65390;53.014;8.886;2022-12-08T04:08:42;8.45;;;4.60;;
76546;SDS011;65390;53.014;8.886;2022-12-08T04:11:09;9.80;;;4.68;;
76546;SDS011;65390;53.014;8.886;2022-12-08T04:13:36;10.07;;;4.45;;
76546;SDS011;65390;53.014;8.886;2022-12-08T04:16:04;10.25;;;4.43;;
76546;SDS011;65390;53.014;8.886;2022-12-08T04:18:32;10.35;;;5.28;;
76546;SDS011;65390;53.014;8.886;2022-12-08T04:21:02;13.60;;;5.10;;
76546;SDS011;65390;53.014;8.886;2022-12-08T04:23:29;10.40;;;5.13;;
76546;SDS011;65390;53.014;8.886;2022-12-08T04:25:55;12.40;;;5.30;;
76546;SDS011;65390;53.014;8.886;2022-12-08T04:28:22;13.63;;;6.05;;
76546;SDS011;65390;53.014;8.886;2022-12-08T04:30:48;9.57;;;6.07;;
76546;SDS011;65390;53.014;8.886;2022-12-08T04:33:15;9.95;;;6.38;;
76546;SDS011;65390;53.014;8.886;2022-12-08T04:35:42;8.88;;;5.53;;
76546;SDS011;65390;53.014;8.886;2022-12-08T04:38:08;12.35;;;5.93;;
76546;SDS011;65390;53.014;8.886;2022-12-08T04:40:35;11.85;;;7.10;;
76546;SDS011;65390;53.014;8.886;2022-12-08T04:43:02;9.98;;;6.82;;
76546;SDS011;65390;53.014;8.886;2022-12-08T04:45:31;10.60;;;7.65;;
76546;SDS011;65390;53.014;8.886;2022-12-08T04:48:03;12.48;;;7.63;;
76546;SDS011;65390;53.014;8.886;2022-12-08T04:50:30;11.18;;;7.82;;
76546;SDS011;65390;53.014;8.886;2022-12-08T04:52:56;11.63;;;8.07;;
76546;SDS011;65390;53.014;8.886;2022-12-08T04:55:23;11.60;;;7.35;;
76546;SDS011;65390;53.014;8.886;2022-12-08T04:57:50;17.17;;;7.90;;
76546;SDS011;65390;53.014;8.886;2022-12-08T05:00:16;13.65;;;7.78;;
76546;SDS011;65390;53.014;8.886;2022-12-08T05:02:46;17.55;;;9.32;;
76546;SDS011;65390;53.014;8.886;2022-12-08T05:07:40;14.23;;;9.77;;
76546;SDS011;65390;53.014;8.886;2022-12-08T05:10:06;20.17;;;11.63;;
76546;SDS011;65390;53.014;8.886;2022-12-08T05:12:33;18.33;;;11.52;;
76546;SDS011;65390;53.014;8.886;2022-12-08T05:15:00;19.00;;;12.52;;
76546;SDS011;65390;53.014;8.886;2022-12-08T05:17:26;14.80;;;11.07;;
76546;SDS011;65390;53.014;8.886;2022-12-08T05:19:53;18.80;;;12.25;;
76546;SDS011;65390;53.014;8.886;2022-12-08T05:22:19;20.63;;;13.75;;
76546;SDS011;65390;53.014;8.886;2022-12-08T05:24:46;18.40;;;13.65;;
76546;SDS011;65390;53.014;8.886;2022-12-08T05:27:13;19.90;;;13.38;;
76546;SDS011;65390;53.014;8.886;2022-12-08T05:29:40;19.85;;;13.07;;
76546;SDS011;65390;53.014;8.886;2022-12-08T05:32:08;17.77;;;12.48;;
76546;SDS011;65390;53.014;8.886;2022-12-08T05:34:38;16.33;;;12.52;;
76546;SDS011;65390;53.014;8.886;2022-12-08T05:37:04;18.33;;;12.40;;
76546;SDS011;65390;53.014;8.886;2022-12-08T05:39:34;17.25;;;12.23;;
76546;SDS011;65390;53.014;8.886;2022-12-08T05:42:03;16.73;;;11.60;;
76546;SDS011;65390;53.014;8.886;2022-12-08T05:44:30;15.52;;;12.32;;
76546;SDS011;65390;53.014;8.886;2022-12-08T05:46:57;16.13;;;11.32;;
76546;SDS011;65390;53.014;8.886;2022-12-08T05:49:23;17.45;;;10.55;;
76546;SDS011;65390;53.014;8.886;2022-12-08T05:51:50;17.65;;;10.40;;
76546;SDS011;65390;53.014;8.886;2022-12-08T05:54:19;13.13;;;9.60;;
76546;SDS011;65390;53.014;8.886;2022-12-08T05:56:47;17.23;;;9.75;;
76546;SDS011;65390;53.014;8.886;2022-12-08T05:59:14;18.55;;;10.27;;
76546;SDS011;65390;53.014;8.886;2022-12-08T06:01:41;13.88;;;9.75;;
76546;SDS011;65390;53.014;8.886;2022-12-08T06:04:08;15.20;;;10.45;;
76546;SDS011;65390;53.014;8.886;2022-12-08T06:06:35;16.52;;;11.20;;
76546;SDS011;65390;53.014;8.886;2022-12-08T06:09:02;18.02;;;11.57;;
76546;SDS011;65390;53.014;8.886;2022-12-08T06:11:30;18.70;;;12.25;;
76546;SDS011;65390;53.014;8.886;2022-12-08T06:13:57;19.38;;;12.13;;
76546;SDS011;65390;53.014;8.886;2022-12-08T06:18:54;18.85;;;13.07;;
76546;SDS011;65390;53.014;8.886;2022-12-08T06:21:21;17.02;;;12.35;;
76546;SDS011;65390;53.014;8.886;2022-12-08T06:23:48;22.52;;;13.68;;
76546;SDS011;65390;53.014;8.886;2022-12-08T06:26:20;17.10;;;12.38;;
76546;SDS011;65390;53.014;8.886;2022-12-08T06:28:46;22.63;;;13.63;;
76546;SDS011;65390;53.014;8.886;2022-12-08T06:31:18;21.27;;;12.85;;
76546;SDS011;65390;53.014;8.886;2022-12-08T06:33:47;19.67;;;14.20;;
76546;SDS011;65390;53.014;8.886;2022-12-08T06:36:14;19.45;;;13.98;;
76546;SDS011;65390;53.014;8.886;2022-12-08T06:38:41;23.55;;;13.48;;
76546;SDS011;65390;53.014;8.886;2022-12-08T06:41:10;24.40;;;15.05;;
76546;SDS011;65390;53.014;8.886;2022-12-08T06:43:38;21.73;;;14.73;;
76546;SDS011;65390;53.014;8.886;2022-12-08T06:46:08;17.50;;;13.13;;
76546;SDS011;65390;53.014;8.886;2022-12-08T06:48:37;18.27;;;13.50;;
76546;SDS011;65390;53.014;8.886;2022-12-08T06:51:16;16.73;;;13.38;;
76546;SDS011;65390;53.014;8.886;2022-12-08T06:53:45;22.13;;;13.15;;
76546;SDS011;65390;53.014;8.886;2022-12-08T06:56:12;15.93;;;12.63;;
76546;SDS011;65390;53.014;8.886;2022-12-08T06:58:41;16.27;;;11.88;;
76546;SDS011;65390;53.014;8.886;2022-12-08T07:01:11;18.67;;;13.38;;
76546;SDS011;65390;53.014;8.886;2022-12-08T07:03:39;21.38;;;11.95;;
76546;SDS011;65390;53.014;8.886;2022-12-08T07:06:12;12.90;;;10.25;;
76546;SDS011;65390;53.014;8.886;2022-12-08T07:08:41;10.85;;;8.90;;
76546;SDS011;65390;53.014;8.886;2022-12-08T07:11:09;11.02;;;8.95;;
76546;SDS011;65390;53.014;8.886;2022-12-08T07:13:37;13.90;;;9.63;;
76546;SDS011;65390;53.014;8.886;2022-12-08T07:16:09;13.35;;;9.75;;
76546;SDS011;65390;53.014;8.886;2022-12-08T07:18:37;11.75;;;9.35;;
76546;SDS011;65390;53.014;8.886;2022-12-08T07:21:09;12.68;;;10.70;;
76546;SDS011;65390;53.014;8.886;2022-12-08T07:26:30;16.58;;;12.35;;
76546;SDS011;65390;53.014;8.886;2022-12-08T07:28:58;16.17;;;12.20;;
76546;SDS011;65390;53.014;8.886;2022-12-08T07:31:25;18.23;;;12.75;;
76546;SDS011;65390;53.014;8.886;2022-12-08T07:33:54;19.40;;;11.10;;
76546;SDS011;65390;53.014;8.886;2022-12-08T07:36:23;13.10;;;10.57;;
76546;SDS011;65390;53.014;8.886;2022-12-08T07:38:50;11.93;;;9.48;;
76546;SDS011;65390;53.014;8.886;2022-12-08T07:41:24;15.00;;;10.55;;
76546;SDS011;65390;53.014;8.886;2022-12-08T07:43:54;13.13;;;9.40;;
76546;SDS011;65390;53.014;8.886;2022-12-08T07:46:22;10.38;;;8.75;;
76546;SDS011;65390;53.014;8.886;2022-12-08T07:48:53;14.48;;;10.07;;
76546;SDS011;65390;53.014;8.886;2022-12-08T07:51:22;12.98;;;10.07;;
76546;SDS011;65390;53.014;8.886;2022-12-08T07:53:50;12.95;;;9.52;;
76546;SDS011;65390;53.014;8.886;2022-12-08T07:56:18;15.77;;;9.82;;
76546;SDS011;65390;53.014;8.886;2022-12-08T07:58:45;13.55;;;9.45;;
76546;SDS011;65390;53.014;8.886;2022-12-08T08:01:27;12.15;;;9.95;;
76546;SDS011;65390;53.014;8.886;2022-12-08T08:03:54;14.90;;;9.00;;
76546;SDS011;65390;53.014;8.886;2022-12-08T08:06:21;12.95;;;9.65;;
76546;SDS011;65390;53.014;8.886;2022-12-08T08:08:49;18.70;;;11.02;;
76546;SDS011;65390;53.014;8.886;2022-12-08T08:11:17;14.07;;;9.55;;
76546;SDS011;65390;53.014;8.886;2022-12-08T08:13:44;13.75;;;9.65;;
76546;SDS011;65390;53.014;8.886;2022-12-08T08:16:09;13.98;;;9.25;;
76546;SDS011;65390;53.014;8.886;2022-12-08T08:18:36;13.23;;;9.80;;
76546;SDS011;65390;53.014;8.886;2022-12-08T08:21:02;13.18;;;9.00;;
76546;SDS011;65390;53.014;8.886;2022-12-08T08:23:27;15.98;;;8.98;;
76546;SDS011;65390;53.014;8.886;2022-12-08T08:25:53;11.82;;;8.27;;
76546;SDS011;65390;53.014;8.886;2022-12-08T08:28:19;9.25;;;6.78;;
76546;SDS011;65390;53.014;8.886;2022-12-08T08:30:47;8.45;;;6.88;;
76546;SDS011;65390;53.014;8.886;2022-12-08T08:33:18;11.07;;;7.20;;
76546;SDS011;65390;53.014;8.886;2022-12-08T08:35:43;12.48;;;6.50;;
76546;SDS011;65390;53.014;8.886;2022-12-08T08:38:08;13.95;;;6.50;;
76546;SDS011;65390;53.014;8.886;2022-12-08T08:40:34;13.13;;;6.35;;
76546;SDS011;65390;53.014;8.886;2022-12-08T08:43:00;7.10;;;5.38;;
76546;SDS011;65390;53.014;8.886;2022-12-08T08:45:26;8.13;;;5.20;;
76546;SDS011;65390;53.014;8.886;2022-12-08T08:47:59;8.57;;;5.35;;
76546;SDS011;65390;53.014;8.886;2022-12-08T08:50:25;10.57;;;6.60;;
76546;SDS011;65390;53.014;8.886;2022-12-08T08:52:51;12.60;;;7.13;;
76546;SDS011;65390;53.014;8.886;2022-12-08T08:55:17;11.68;;;6.72;;
76546;SDS011;65390;53.014;8.886;2022-12-08T08:57:43;18.05;;;7.97;;
76546;SDS011;65390;53.014;8.886;2022-12-08T09:00:11;10.27;;;6.13;;
76546;SDS011;65390;53.014;8.886;2022-12-08T09:02:37;7.78;;;5.47;;
76546;SDS011;65390;53.014;8.886;2022-12-08T09:05:03;8.85;;;5.50;;
76546;SDS011;65390;53.014;8.886;2022-12-08T09:07:29;8.43;;;5.40;;
76546;SDS011;65390;53.014;8.886;2022-12-08T09:09:55;11.48;;;5.90;;
76546;SDS011;65390;53.014;8.886;2022-12-08T09:12:21;6.90;;;4.45;;
76546;SDS011;65390;53.014;8.886;2022-12-08T09:14:49;8.05;;;4.03;;
76546;SDS011;65390;53.014;8.886;2022-12-08T09:17:14;5.75;;;4.50;;
76546;SDS011;65390;53.014;8.886;2022-12-08T09:19:39;5.45;;;3.67;;
76546;SDS011;65390;53.014;8.886;2022-12-08T09:22:05;9.15;;;3.70;;
76546;SDS011;65390;53.014;8.886;2022-12-08T09:24:30;4.35;;;3.35;;
76546;SDS011;65390;53.014;8.886;2022-12-08T09:26:57;5.10;;;2.63;;
76546;SDS011;65390;53.014;8.886;2022-12-08T09:29:26;5.75;;;3.35;;
76546;SDS011;65390;53.014;8.886;2022-12-08T09:31:52;3.78;;;2.88;;
76546;SDS011;65390;53.014;8.886;2022-12-08T09:34:20;5.88;;;2.70;;
76546;SDS011;65390;53.014;8.886;2022-12-08T09:36:50;6.32;;;3.10;;
76546;SDS011;65390;53.014;8.886;2022-12-08T09:39:15;5.20;;;2.97;;
76546;SDS011;65390;53.014;8.886;2022-12-08T09:44:37;4.65;;;3.42;;
76546;SDS011;65390;53.014;8.886;2022-12-08T09:47:23;8.73;;;3.47;;
76546;SDS011;65390;53.014;8.886;2022-12-08T09:52:39;6.38;;;3.17;;
76546;SDS011;65390;53.014;8.886;2022-12-08T09:55:19;6.32;;;3.35;;
76546;SDS011;65390;53.014;8.886;2022-12-08T09:58:09;6.60;;;3.00;;
76546;SDS011;65390;53.014;8.886;2022-12-08T10:00:59;6.07;;;3.50;;
76546;SDS011;65390;53.014;8.886;2022-12-08T10:03:26;6.38;;;2.95;;
76546;SDS011;65390;53.014;8.886;2022-12-08T10:20:49;8.60;;;5.13;;
76546;SDS011;65390;53.014;8.886;2022-12-08T10:23:35;14.43;;;6.65;;
76546;SDS011;65390;53.014;8.886;2022-12-08T10:26:17;9.38;;;6.45;;
76546;SDS011;65390;53.014;8.886;2022-12-08T10:28:49;10.27;;;7.22;;
76546;SDS011;65390;53.014;8.886;2022-12-08T10:31:33;13.27;;;7.53;;
76546;SDS011;65390;53.014;8.886;2022-12-08T10:37:38;12.98;;;7.80;;
76546;SDS011;65390;53.014;8.886;2022-12-08T10:40:23;13.30;;;9.00;;
76546;SDS011;65390;53.014;8.886;2022-12-08T10:42:57;15.98;;;8.48;;
76546;SDS011;65390;53.014;8.886;2022-12-08T10:45:42;15.20;;;9.90;;
76546;SDS011;65390;53.014;8.886;2022-12-08T10:48:25;13.02;;;8.45;;
76546;SDS011;65390;53.014;8.886;2022-12-08T10:50:57;16.00;;;8.90;;
76546;SDS011;65390;53.014;8.886;2022-12-08T10:53:45;13.18;;;8.18;;
76546;SDS011;65390;53.014;8.886;2022-12-08T10:56:24;12.32;;;8.15;;
76546;SDS011;65390;53.014;8.886;2022-12-08T10:59:09;11.98;;;7.03;;
76546;SDS011;65390;53.014;8.886;2022-12-08T11:02:26;11.88;;;7.07;;
76546;SDS011;65390;53.014;8.886;2022-12-08T11:05:13;9.60;;;6.95;;
76546;SDS011;65390;53.014;8.886;2022-12-08T11:08:08;9.70;;;5.85;;
76546;SDS011;65390;53.014;8.886;2022-12-08T11:10:43;10.25;;;5.75;;
76546;SDS011;65390;53.014;8.886;2022-12-08T11:13:31;10.38;;;5.80;;
76546;SDS011;65390;53.014;8.886;2022-12-08T11:16:25;8.20;;;5.13;;
76546;SDS011;65390;53.014;8.886;2022-12-08T11:19:19;9.57;;;4.22;;
76546;SDS011;65390;53.014;8.886;2022-12-08T11:21:59;8.13;;;4.70;;
76546;SDS011;65390;53.014;8.886;2022-12-08T11:24:40;10.15;;;4.75;;
76546;SDS011;65390;53.014;8.886;2022-12-08T11:27:17;7.05;;;3.55;;
76546;SDS011;65390;53.014;8.886;2022-12-08T11:33:27;5.57;;;2.88;;
76546;SDS011;65390;53.014;8.886;2022-12-08T11:36:10;5.18;;;2.58;;
76546;SDS011;65390;53.014;8.886;2022-12-08T11:38:45;6.07;;;2.80;;
76546;SDS011;65390;53.014;8.886;2022-12-08T11:41:15;4.47;;;3.45;;
76546;SDS011;65390;53.014;8.886;2022-12-08T11:47:12;6.05;;;3.10;;
76546;SDS011;65390;53.014;8.886;2022-12-08T11:49:45;6.38;;;2.60;;
76546;SDS011;65390;53.014;8.886;2022-12-08T11:52:33;11.63;;;5.22;;
76546;SDS011;65390;53.014;8.886;2022-12-08T11:58:21;7.95;;;4.55;;
76546;SDS011;65390;53.014;8.886;2022-12-08T12:00:55;5.07;;;3.42;;
76546;SDS011;65390;53.014;8.886;2022-12-08T12:03:30;4.13;;;3.50;;
76546;SDS011;65390;53.014;8.886;2022-12-08T12:12:52;7.30;;;3.33;;
76546;SDS011;65390;53.014;8.886;2022-12-08T12:15:50;5.80;;;3.58;;
76546;SDS011;65390;53.014;8.886;2022-12-08T12:21:34;5.15;;;3.50;;
76546;SDS011;65390;53.014;8.886;2022-12-08T12:24:17;6.53;;;4.05;;
76546;SDS011;65390;53.014;8.886;2022-12-08T12:27:44;7.38;;;4.15;;
76546;SDS011;65390;53.014;8.886;2022-12-08T12:30:17;6.63;;;3.85;;
76546;SDS011;65390;53.014;8.886;2022-12-08T12:33:11;7.65;;;4.25;;
76546;SDS011;65390;53.014;8.886;2022-12-08T12:35:43;7.18;;;3.38;;
76546;SDS011;65390;53.014;8.886;2022-12-08T12:41:34;7.32;;;3.42;;
76546;SDS011;65390;53.014;8.886;2022-12-08T12:46:57;16.52;;;3.90;;
76546;SDS011;65390;53.014;8.886;2022-12-08T13:02:29;6.75;;;3.47;;
76546;SDS011;65390;53.014;8.886;2022-12-08T13:13:31;5.97;;;4.30;;
76546;SDS011;65390;53.014;8.886;2022-12-08T13:16:15;9.52;;;4.78;;
76546;SDS011;65390;53.014;8.886;2022-12-08T13:18:49;8.02;;;5.72;;
76546;SDS011;65390;53.014;8.886;2022-12-08T13:21:18;9.07;;;5.80;;
76546;SDS011;65390;53.014;8.886;2022-12-08T13:29:30;9.98;;;7.60;;
76546;SDS011;65390;53.014;8.886;2022-12-08T13:32:51;10.10;;;6.05;;
76546;SDS011;65390;53.014;8.886;2022-12-08T13:35:09;9.13;;;6.88;;
76546;SDS011;65390;53.014;8.886;2022-12-08T13:37:50;12.93;;;6.82;;
76546;SDS011;65390;53.014;8.886;2022-12-08T13:40:24;9.65;;;6.85;;
76546;SDS011;65390;53.014;8.886;2022-12-08T13:45:40;14.77;;;7.15;;
76546;SDS011;65390;53.014;8.886;2022-12-08T13:51:06;11.77;;;6.88;;
76546;SDS011;65390;53.014;8.886;2022-12-08T13:53:38;10.32;;;6.63;;
76546;SDS011;65390;53.014;8.886;2022-12-08T13:56:06;15.25;;;7.97;;
76546;SDS011;65390;53.014;8.886;2022-12-08T13:58:36;10.77;;;7.63;;
76546;SDS011;65390;53.014;8.886;2022-12-08T14:01:10;11.52;;;7.40;;
76546;SDS011;65390;53.014;8.886;2022-12-08T14:06:40;13.98;;;8.38;;
76546;SDS011;65390;53.014;8.886;2022-12-08T14:09:21;12.40;;;7.82;;
76546;SDS011;65390;53.014;8.886;2022-12-08T14:14:35;10.63;;;7.40;;
76546;SDS011;65390;53.014;8.886;2022-12-08T14:17:12;10.55;;;7.65;;
76546;SDS011;65390;53.014;8.886;2022-12-08T14:19:55;12.67;;;6.17;;
76546;SDS011;65390;53.014;8.886;2022-12-08T14:22:20;11.25;;;6.38;;
76546;SDS011;65390;53.014;8.886;2022-12-08T14:24:47;13.88;;;5.80;;
76546;SDS011;65390;53.014;8.886;2022-12-08T14:27:18;9.63;;;6.40;;
76546;SDS011;65390;53.014;8.886;2022-12-08T14:29:55;12.27;;;6.32;;
76546;SDS011;65390;53.014;8.886;2022-12-08T14:32:26;11.82;;;6.78;;
76546;SDS011;65390;53.014;8.886;2022-12-08T14:37:37;9.50;;;6.03;;
76546;SDS011;65390;53.014;8.886;2022-12-08T14:43:23;13.30;;;7.50;;
76546;SDS011;65390;53.014;8.886;2022-12-08T14:45:50;12.25;;;7.38;;
76546;SDS011;65390;53.014;8.886;2022-12-08T14:54:10;14.52;;;8.43;;
76546;SDS011;65390;53.014;8.886;2022-12-08T14:56:55;12.65;;;8.85;;
76546;SDS011;65390;53.014;8.886;2022-12-08T14:59:36;14.65;;;9.02;;
76546;SDS011;65390;53.014;8.886;2022-12-08T15:05:10;18.00;;;8.73;;
76546;SDS011;65390;53.014;8.886;2022-12-08T15:07:50;16.77;;;10.20;;
76546;SDS011;65390;53.014;8.886;2022-12-08T15:10:27;15.57;;;8.23;;
76546;SDS011;65390;53.014;8.886;2022-12-08T15:13:19;20.50;;;9.07;;
76546;SDS011;65390;53.014;8.886;2022-12-08T15:15:59;13.90;;;8.63;;
76546;SDS011;65390;53.014;8.886;2022-12-08T15:18:39;15.50;;;9.70;;
76546;SDS011;65390;53.014;8.886;2022-12-08T15:21:09;16.80;;;8.63;;
76546;SDS011;65390;53.014;8.886;2022-12-08T15:23:45;13.45;;;9.23;;
76546;SDS011;65390;53.014;8.886;2022-12-08T15:26:22;15.50;;;9.93;;
76546;SDS011;65390;53.014;8.886;2022-12-08T15:28:50;17.35;;;10.75;;
76546;SDS011;65390;53.014;8.886;2022-12-08T15:31:21;13.93;;;9.90;;
76546;SDS011;65390;53.014;8.886;2022-12-08T15:33:48;20.23;;;10.77;;
76546;SDS011;65390;53.014;8.886;2022-12-08T15:36:14;22.92;;;10.05;;
76546;SDS011;65390;53.014;8.886;2022-12-08T15:38:44;18.67;;;9.98;;
76546;SDS011;65390;53.014;8.886;2022-12-08T15:41:10;15.63;;;9.82;;
76546;SDS011;65390;53.014;8.886;2022-12-08T15:43:37;18.58;;;9.80;;
76546;SDS011;65390;53.014;8.886;2022-12-08T15:46:04;18.33;;;10.68;;
76546;SDS011;65390;53.014;8.886;2022-12-08T15:48:31;24.23;;;11.70;;
76546;SDS011;65390;53.014;8.886;2022-12-08T15:50:59;18.95;;;10.20;;
76546;SDS011;65390;53.014;8.886;2022-12-08T15:53:25;16.35;;;10.35;;
76546;SDS011;65390;53.014;8.886;2022-12-08T15:55:52;16.55;;;10.00;;
76546;SDS011;65390;53.014;8.886;2022-12-08T15:58:22;17.52;;;9.55;;
76546;SDS011;65390;53.014;8.886;2022-12-08T16:00:52;16.23;;;9.77;;
76546;SDS011;65390;53.014;8.886;2022-12-08T16:05:50;19.30;;;9.52;;
76546;SDS011;65390;53.014;8.886;2022-12-08T16:08:16;16.40;;;10.52;;
76546;SDS011;65390;53.014;8.886;2022-12-08T16:10:47;16.30;;;9.55;;
76546;SDS011;65390;53.014;8.886;2022-12-08T16:13:17;16.70;;;10.68;;
76546;SDS011;65390;53.014;8.886;2022-12-08T16:16:08;18.58;;;10.15;;
76546;SDS011;65390;53.014;8.886;2022-12-08T16:18:42;18.20;;;10.27;;
76546;SDS011;65390;53.014;8.886;2022-12-08T16:21:09;17.25;;;10.18;;
76546;SDS011;65390;53.014;8.886;2022-12-08T16:23:39;17.17;;;10.27;;
76546;SDS011;65390;53.014;8.886;2022-12-08T16:26:08;17.27;;;11.15;;
76546;SDS011;65390;53.014;8.886;2022-12-08T16:28:37;19.05;;;10.55;;
76546;SDS011;65390;53.014;8.886;2022-12-08T16:31:04;19.15;;;11.05;;
76546;SDS011;65390;53.014;8.886;2022-12-08T16:33:32;18.90;;;12.07;;
76546;SDS011;65390;53.014;8.886;2022-12-08T16:35:59;20.63;;;11.75;;
76546;SDS011;65390;53.014;8.886;2022-12-08T16:38:24;17.02;;;10.90;;
76546;SDS011;65390;53.014;8.886;2022-12-08T16:40:50;17.40;;;10.80;;
76546;SDS011;65390;53.014;8.886;2022-12-08T16:43:34;15.98;;;9.60;;
76546;SDS011;65390;53.014;8.886;2022-12-08T16:46:02;15.50;;;9.15;;
76546;SDS011;65390;53.014;8.886;2022-12-08T16:48:31;19.48;;;10.57;;
76546;SDS011;65390;53.014;8.886;2022-12-08T16:50:56;17.60;;;9.70;;
76546;SDS011;65390;53.014;8.886;2022-12-08T16:53:22;19.80;;;9.15;;
76546;SDS011;65390;53.014;8.886;2022-12-08T16:55:48;19.35;;;9.75;;
76546;SDS011;65390;53.014;8.886;2022-12-08T16:58:14;14.20;;;9.38;;
76546;SDS011;65390;53.014;8.886;2022-12-08T17:00:42;13.10;;;8.77;;
76546;SDS011;65390;53.014;8.886;2022-12-08T17:03:07;20.92;;;9.55;;
76546;SDS011;65390;53.014;8.886;2022-12-08T17:05:41;13.98;;;8.60;;
76546;SDS011;65390;53.014;8.886;2022-12-08T17:08:07;19.00;;;8.85;;
76546;SDS011;65390;53.014;8.886;2022-12-08T17:10:32;16.95;;;10.07;;
76546;SDS011;65390;53.014;8.886;2022-12-08T17:12:59;14.63;;;9.10;;
76546;SDS011;65390;53.014;8.886;2022-12-08T17:15:25;18.05;;;9.20;;
76546;SDS011;65390;53.014;8.886;2022-12-08T17:17:53;16.02;;;9.70;;
76546;SDS011;65390;53.014;8.886;2022-12-08T17:20:20;16.88;;;9.73;;
76546;SDS011;65390;53.014;8.886;2022-12-08T17:22:48;16.08;;;9.75;;
76546;SDS011;65390;53.014;8.886;2022-12-08T17:25:16;14.35;;;9.50;;
76546;SDS011;65390;53.014;8.886;2022-12-08T17:27:41;17.45;;;10.65;;
76546;SDS011;65390;53.014;8.886;2022-12-08T17:30:09;17.23;;;9.75;;
76546;SDS011;65390;53.014;8.886;2022-12-08T17:32:46;18.38;;;9.48;;
76546;SDS011;65390;53.014;8.886;2022-12-08T17:35:18;16.35;;;10.43;;
76546;SDS011;65390;53.014;8.886;2022-12-08T17:37:44;14.05;;;9.15;;
76546;SDS011;65390;53.014;8.886;2022-12-08T17:40:09;14.52;;;9.18;;
76546;SDS011;65390;53.014;8.886;2022-12-08T17:42:35;15.20;;;9.95;;